sensor_id;sensor_type;location;lat;lon;timestamp;temperature;humidity
41628;DHT22;27321;50.816;6.054;2022-08-11T00:00:46;22.80;50.50
41628;DHT22;27321;50.816;6.054;2022-08-11T00:03:55;22.70;50.70
41628;DHT22;27321;50.816;6.054;2022-08-11T00:07:02;22.60;51.00
41628;DHT22;27321;50.816;6.054;2022-08-11T00:10:10;22.60;51.30
41628;DHT22;27321;50.816;6.054;2022-08-11T00:13:12;22.50;51.30
41628;DHT22;27321;50.816;6.054;2022-08-11T00:16:19;22.50;51.50
41628;DHT22;27321;50.816;6.054;2022-08-11T00:19:24;22.50;51.50
41628;DHT22;27321;50.816;6.054;2022-08-11T00:22:27;22.50;51.50
41628;DHT22;27321;50.816;6.054;2022-08-11T00:25:29;22.50;51.70
41628;DHT22;27321;50.816;6.054;2022-08-11T00:28:33;22.40;51.60
41628;DHT22;27321;50.816;6.054;2022-08-11T00:31:35;22.40;51.50
41628;DHT22;27321;50.816;6.054;2022-08-11T00:34:37;22.40;51.80
41628;DHT22;27321;50.816;6.054;2022-08-11T00:37:38;22.30;51.70
41628;DHT22;27321;50.816;6.054;2022-08-11T00:40:54;22.30;52.00
41628;DHT22;27321;50.816;6.054;2022-08-11T00:50:48;22.20;51.90
41628;DHT22;27321;50.816;6.054;2022-08-11T01:26:13;21.80;53.40
41628;DHT22;27321;50.816;6.054;2022-08-11T01:36:59;21.80;53.60
41628;DHT22;27321;50.816;6.054;2022-08-11T01:48:19;21.60;53.90
41628;DHT22;27321;50.816;6.054;2022-08-11T01:55:31;21.60;54.10
41628;DHT22;27321;50.816;6.054;2022-08-11T01:58:56;21.60;53.80
41628;DHT22;27321;50.816;6.054;2022-08-11T02:02:26;21.50;54.20
41628;DHT22;27321;50.816;6.054;2022-08-11T02:05:59;21.50;54.00
41628;DHT22;27321;50.816;6.054;2022-08-11T02:09:52;21.50;54.40
41628;DHT22;27321;50.816;6.054;2022-08-11T02:13:19;21.40;54.60
41628;DHT22;27321;50.816;6.054;2022-08-11T02:16:47;21.30;54.80
41628;DHT22;27321;50.816;6.054;2022-08-11T02:23:50;21.20;55.00
41628;DHT22;27321;50.816;6.054;2022-08-11T02:27:06;21.30;55.10
41628;DHT22;27321;50.816;6.054;2022-08-11T02:30:13;21.20;55.10
41628;DHT22;27321;50.816;6.054;2022-08-11T02:33:22;21.20;55.20
41628;DHT22;27321;50.816;6.054;2022-08-11T02:36:37;21.20;55.10
41628;DHT22;27321;50.816;6.054;2022-08-11T02:43:08;21.20;55.10
41628;DHT22;27321;50.816;6.054;2022-08-11T02:46:30;21.20;55.00
41628;DHT22;27321;50.816;6.054;2022-08-11T02:50:02;21.20;54.90
41628;DHT22;27321;50.816;6.054;2022-08-11T02:56:58;21.10;55.00
41628;DHT22;27321;50.816;6.054;2022-08-11T03:03:24;21.10;55.10
41628;DHT22;27321;50.816;6.054;2022-08-11T03:06:54;21.00;55.20
41628;DHT22;27321;50.816;6.054;2022-08-11T03:10:19;21.10;55.00
41628;DHT22;27321;50.816;6.054;2022-08-11T03:13:30;21.00;55.20
41628;DHT22;27321;50.816;6.054;2022-08-11T03:17:19;21.00;55.40
41628;DHT22;27321;50.816;6.054;2022-08-11T03:23:57;20.90;55.70
41628;DHT22;27321;50.816;6.054;2022-08-11T03:27:26;20.80;56.10
41628;DHT22;27321;50.816;6.054;2022-08-11T03:30:34;20.80;56.10
41628;DHT22;27321;50.816;6.054;2022-08-11T03:33:57;20.80;56.00
41628;DHT22;27321;50.816;6.054;2022-08-11T03:41:18;20.60;56.50
41628;DHT22;27321;50.816;6.054;2022-08-11T03:48:37;20.60;56.50
41628;DHT22;27321;50.816;6.054;2022-08-11T03:52:20;20.50;57.00
41628;DHT22;27321;50.816;6.054;2022-08-11T03:59:53;20.40;57.30
41628;DHT22;27321;50.816;6.054;2022-08-11T04:03:51;20.50;57.20
41628;DHT22;27321;50.816;6.054;2022-08-11T04:11:04;20.40;57.30
41628;DHT22;27321;50.816;6.054;2022-08-11T04:25:35;20.30;57.80
41628;DHT22;27321;50.816;6.054;2022-08-11T04:28:59;20.20;57.80
41628;DHT22;27321;50.816;6.054;2022-08-11T04:32:28;20.10;58.00
41628;DHT22;27321;50.816;6.054;2022-08-11T04:36:01;20.10;58.00
41628;DHT22;27321;50.816;6.054;2022-08-11T04:47:26;20.10;58.20
41628;DHT22;27321;50.816;6.054;2022-08-11T04:51:14;20.10;58.10
41628;DHT22;27321;50.816;6.054;2022-08-11T05:03:28;20.10;58.20
41628;DHT22;27321;50.816;6.054;2022-08-11T05:10:41;20.10;58.00
41628;DHT22;27321;50.816;6.054;2022-08-11T05:14:17;20.20;58.10
41628;DHT22;27321;50.816;6.054;2022-08-11T05:18:15;20.10;58.00
41628;DHT22;27321;50.816;6.054;2022-08-11T05:21:36;20.20;57.90
41628;DHT22;27321;50.816;6.054;2022-08-11T05:25:10;20.10;58.50
41628;DHT22;27321;50.816;6.054;2022-08-11T05:28:37;20.20;58.50
41628;DHT22;27321;50.816;6.054;2022-08-11T05:32:12;20.20;58.70
41628;DHT22;27321;50.816;6.054;2022-08-11T05:35:44;20.20;58.60
41628;DHT22;27321;50.816;6.054;2022-08-11T05:38:56;20.20;59.00
41628;DHT22;27321;50.816;6.054;2022-08-11T05:42:21;20.30;59.10
41628;DHT22;27321;50.816;6.054;2022-08-11T05:45:42;20.40;59.10
41628;DHT22;27321;50.816;6.054;2022-08-11T05:49:08;20.40;58.90
41628;DHT22;27321;50.816;6.054;2022-08-11T05:52:29;20.40;58.60
41628;DHT22;27321;50.816;6.054;2022-08-11T05:55:50;20.50;58.70
41628;DHT22;27321;50.816;6.054;2022-08-11T05:59:16;20.50;58.40
41628;DHT22;27321;50.816;6.054;2022-08-11T06:02:18;20.50;58.30
41628;DHT22;27321;50.816;6.054;2022-08-11T06:05:20;20.60;57.60
41628;DHT22;27321;50.816;6.054;2022-08-11T06:08:30;20.60;57.60
41628;DHT22;27321;50.816;6.054;2022-08-11T06:11:39;20.70;56.60
41628;DHT22;27321;50.816;6.054;2022-08-11T06:14:43;20.80;56.60
41628;DHT22;27321;50.816;6.054;2022-08-11T06:17:49;20.90;55.10
41628;DHT22;27321;50.816;6.054;2022-08-11T06:20:55;21.00;55.00
41628;DHT22;27321;50.816;6.054;2022-08-11T06:23:58;21.10;54.80
41628;DHT22;27321;50.816;6.054;2022-08-11T06:27:00;21.10;54.60
41628;DHT22;27321;50.816;6.054;2022-08-11T06:30:04;21.20;53.90
41628;DHT22;27321;50.816;6.054;2022-08-11T06:33:17;21.30;53.80
41628;DHT22;27321;50.816;6.054;2022-08-11T06:36:33;21.40;53.20
41628;DHT22;27321;50.816;6.054;2022-08-11T06:40:00;21.50;52.80
41628;DHT22;27321;50.816;6.054;2022-08-11T06:43:22;21.60;53.20
41628;DHT22;27321;50.816;6.054;2022-08-11T06:46:36;21.60;52.70
41628;DHT22;27321;50.816;6.054;2022-08-11T06:49:43;21.60;51.30
41628;DHT22;27321;50.816;6.054;2022-08-11T06:53:08;21.70;50.90
41628;DHT22;27321;50.816;6.054;2022-08-11T06:56:21;21.80;51.10
41628;DHT22;27321;50.816;6.054;2022-08-11T06:59:46;22.00;50.60
41628;DHT22;27321;50.816;6.054;2022-08-11T07:03:10;22.00;49.90
41628;DHT22;27321;50.816;6.054;2022-08-11T07:06:38;22.10;49.70
41628;DHT22;27321;50.816;6.054;2022-08-11T07:14:06;22.30;49.60
41628;DHT22;27321;50.816;6.054;2022-08-11T07:17:27;22.30;49.70
41628;DHT22;27321;50.816;6.054;2022-08-11T07:20:30;22.40;48.70
41628;DHT22;27321;50.816;6.054;2022-08-11T07:23:53;22.50;48.40
41628;DHT22;27321;50.816;6.054;2022-08-11T07:27:17;22.50;48.30
41628;DHT22;27321;50.816;6.054;2022-08-11T07:30:39;22.60;47.80
41628;DHT22;27321;50.816;6.054;2022-08-11T07:33:49;22.70;48.50
41628;DHT22;27321;50.816;6.054;2022-08-11T07:36:57;22.80;48.80
41628;DHT22;27321;50.816;6.054;2022-08-11T07:39:59;22.90;48.70
41628;DHT22;27321;50.816;6.054;2022-08-11T07:43:03;22.90;47.40
41628;DHT22;27321;50.816;6.054;2022-08-11T07:46:04;23.00;47.20
41628;DHT22;27321;50.816;6.054;2022-08-11T07:49:26;23.10;46.70
41628;DHT22;27321;50.816;6.054;2022-08-11T07:52:47;23.20;46.80
41628;DHT22;27321;50.816;6.054;2022-08-11T07:55:48;23.20;47.20
41628;DHT22;27321;50.816;6.054;2022-08-11T07:58:50;23.30;46.30
41628;DHT22;27321;50.816;6.054;2022-08-11T08:02:11;23.40;46.70
41628;DHT22;27321;50.816;6.054;2022-08-11T08:05:31;23.50;45.40
41628;DHT22;27321;50.816;6.054;2022-08-11T08:08:52;23.50;45.00
41628;DHT22;27321;50.816;6.054;2022-08-11T08:12:14;23.60;45.60
41628;DHT22;27321;50.816;6.054;2022-08-11T08:15:34;23.70;45.90
41628;DHT22;27321;50.816;6.054;2022-08-11T08:18:55;23.80;46.60
41628;DHT22;27321;50.816;6.054;2022-08-11T08:21:56;23.90;45.70
41628;DHT22;27321;50.816;6.054;2022-08-11T08:24:58;23.90;45.50
41628;DHT22;27321;50.816;6.054;2022-08-11T08:28:04;24.00;44.00
41628;DHT22;27321;50.816;6.054;2022-08-11T08:31:07;24.10;44.50
41628;DHT22;27321;50.816;6.054;2022-08-11T08:34:08;24.10;43.20
41628;DHT22;27321;50.816;6.054;2022-08-11T08:37:11;24.20;43.70
41628;DHT22;27321;50.816;6.054;2022-08-11T08:40:13;24.30;45.00
41628;DHT22;27321;50.816;6.054;2022-08-11T08:43:15;24.40;44.80
41628;DHT22;27321;50.816;6.054;2022-08-11T08:46:21;24.40;43.80
41628;DHT22;27321;50.816;6.054;2022-08-11T08:49:32;24.50;43.80
41628;DHT22;27321;50.816;6.054;2022-08-11T08:52:37;24.60;43.10
41628;DHT22;27321;50.816;6.054;2022-08-11T08:55:41;24.60;43.30
41628;DHT22;27321;50.816;6.054;2022-08-11T08:58:45;24.60;41.80
41628;DHT22;27321;50.816;6.054;2022-08-11T09:01:58;24.70;41.60
41628;DHT22;27321;50.816;6.054;2022-08-11T09:05:05;24.80;41.20
41628;DHT22;27321;50.816;6.054;2022-08-11T09:08:08;25.00;41.00
41628;DHT22;27321;50.816;6.054;2022-08-11T09:11:10;25.00;39.30
41628;DHT22;27321;50.816;6.054;2022-08-11T09:14:38;25.10;36.50
41628;DHT22;27321;50.816;6.054;2022-08-11T09:18:00;25.30;37.50
41628;DHT22;27321;50.816;6.054;2022-08-11T09:21:12;25.40;36.20
41628;DHT22;27321;50.816;6.054;2022-08-11T09:24:17;25.50;37.10
41628;DHT22;27321;50.816;6.054;2022-08-11T09:27:38;25.50;36.10
41628;DHT22;27321;50.816;6.054;2022-08-11T09:30:44;25.50;36.60
41628;DHT22;27321;50.816;6.054;2022-08-11T09:33:51;25.60;35.40
41628;DHT22;27321;50.816;6.054;2022-08-11T09:36:54;25.60;36.60
41628;DHT22;27321;50.816;6.054;2022-08-11T09:40:15;25.70;35.90
41628;DHT22;27321;50.816;6.054;2022-08-11T09:43:28;25.80;36.20
41628;DHT22;27321;50.816;6.054;2022-08-11T09:46:51;25.80;36.50
41628;DHT22;27321;50.816;6.054;2022-08-11T09:50:00;25.80;36.00
41628;DHT22;27321;50.816;6.054;2022-08-11T09:53:05;25.90;35.30
41628;DHT22;27321;50.816;6.054;2022-08-11T09:56:11;26.00;34.90
41628;DHT22;27321;50.816;6.054;2022-08-11T09:59:33;26.00;35.70
41628;DHT22;27321;50.816;6.054;2022-08-11T10:02:41;26.00;34.30
41628;DHT22;27321;50.816;6.054;2022-08-11T10:06:04;26.10;34.50
41628;DHT22;27321;50.816;6.054;2022-08-11T10:09:24;26.30;33.20
41628;DHT22;27321;50.816;6.054;2022-08-11T10:12:47;26.40;32.70
41628;DHT22;27321;50.816;6.054;2022-08-11T10:15:49;26.60;32.60
41628;DHT22;27321;50.816;6.054;2022-08-11T10:18:55;26.60;33.30
41628;DHT22;27321;50.816;6.054;2022-08-11T10:21:57;26.60;33.70
41628;DHT22;27321;50.816;6.054;2022-08-11T10:25:18;26.60;34.70
41628;DHT22;27321;50.816;6.054;2022-08-11T10:28:38;26.60;33.00
41628;DHT22;27321;50.816;6.054;2022-08-11T10:31:40;26.70;32.10
41628;DHT22;27321;50.816;6.054;2022-08-11T10:35:06;26.70;34.00
41628;DHT22;27321;50.816;6.054;2022-08-11T10:38:16;26.70;34.40
41628;DHT22;27321;50.816;6.054;2022-08-11T10:41:18;26.70;34.70
41628;DHT22;27321;50.816;6.054;2022-08-11T10:44:41;26.60;35.00
41628;DHT22;27321;50.816;6.054;2022-08-11T10:47:55;26.70;34.40
41628;DHT22;27321;50.816;6.054;2022-08-11T10:50:57;26.70;34.30
41628;DHT22;27321;50.816;6.054;2022-08-11T10:54:14;26.80;34.10
41628;DHT22;27321;50.816;6.054;2022-08-11T10:57:35;26.90;32.70
41628;DHT22;27321;50.816;6.054;2022-08-11T11:01:02;27.00;32.30
41628;DHT22;27321;50.816;6.054;2022-08-11T11:04:16;27.10;32.50
41628;DHT22;27321;50.816;6.054;2022-08-11T11:07:22;27.20;31.50
41628;DHT22;27321;50.816;6.054;2022-08-11T11:10:27;27.20;31.80
41628;DHT22;27321;50.816;6.054;2022-08-11T11:13:29;27.30;31.80
41628;DHT22;27321;50.816;6.054;2022-08-11T11:16:49;27.40;32.80
41628;DHT22;27321;50.816;6.054;2022-08-11T11:20:15;27.40;32.60
41628;DHT22;27321;50.816;6.054;2022-08-11T11:30:07;27.30;31.20
41628;DHT22;27321;50.816;6.054;2022-08-11T11:33:37;27.50;31.00
41628;DHT22;27321;50.816;6.054;2022-08-11T11:36:54;27.50;30.90
41628;DHT22;27321;50.816;6.054;2022-08-11T11:39:56;27.60;31.50
41628;DHT22;27321;50.816;6.054;2022-08-11T11:42:58;27.60;31.30
41628;DHT22;27321;50.816;6.054;2022-08-11T11:46:01;27.70;30.50
41628;DHT22;27321;50.816;6.054;2022-08-11T11:49:03;27.80;29.80
41628;DHT22;27321;50.816;6.054;2022-08-11T11:52:14;27.80;30.70
41628;DHT22;27321;50.816;6.054;2022-08-11T11:55:21;27.80;30.60
41628;DHT22;27321;50.816;6.054;2022-08-11T11:58:23;27.80;31.10
41628;DHT22;27321;50.816;6.054;2022-08-11T12:01:46;27.80;30.40
41628;DHT22;27321;50.816;6.054;2022-08-11T12:04:48;27.90;30.20
41628;DHT22;27321;50.816;6.054;2022-08-11T12:07:52;28.00;29.70
41628;DHT22;27321;50.816;6.054;2022-08-11T12:11:12;28.00;29.20
41628;DHT22;27321;50.816;6.054;2022-08-11T12:14:35;28.10;29.30
41628;DHT22;27321;50.816;6.054;2022-08-11T12:17:37;28.10;29.70
41628;DHT22;27321;50.816;6.054;2022-08-11T12:20:38;28.10;29.70
41628;DHT22;27321;50.816;6.054;2022-08-11T12:23:41;28.10;30.00
41628;DHT22;27321;50.816;6.054;2022-08-11T12:27:03;28.10;29.90
41628;DHT22;27321;50.816;6.054;2022-08-11T12:30:23;28.20;29.70
41628;DHT22;27321;50.816;6.054;2022-08-11T12:33:27;28.10;30.30
41628;DHT22;27321;50.816;6.054;2022-08-11T12:36:32;28.20;30.20
41628;DHT22;27321;50.816;6.054;2022-08-11T12:39:48;28.20;30.10
41628;DHT22;27321;50.816;6.054;2022-08-11T12:43:15;28.20;30.80
41628;DHT22;27321;50.816;6.054;2022-08-11T12:46:36;28.20;31.50
41628;DHT22;27321;50.816;6.054;2022-08-11T12:49:44;28.20;31.50
41628;DHT22;27321;50.816;6.054;2022-08-11T12:53:06;28.20;30.60
41628;DHT22;27321;50.816;6.054;2022-08-11T12:56:10;28.20;30.70
41628;DHT22;27321;50.816;6.054;2022-08-11T12:59:33;28.20;30.10
41628;DHT22;27321;50.816;6.054;2022-08-11T13:02:54;28.30;30.70
41628;DHT22;27321;50.816;6.054;2022-08-11T13:06:14;28.30;30.70
41628;DHT22;27321;50.816;6.054;2022-08-11T13:09:17;28.40;30.80
41628;DHT22;27321;50.816;6.054;2022-08-11T13:12:24;28.40;30.80
41628;DHT22;27321;50.816;6.054;2022-08-11T13:15:46;28.40;31.20
41628;DHT22;27321;50.816;6.054;2022-08-11T13:18:50;28.40;30.50
41628;DHT22;27321;50.816;6.054;2022-08-11T13:21:52;28.40;31.10
41628;DHT22;27321;50.816;6.054;2022-08-11T13:24:55;28.50;30.60
41628;DHT22;27321;50.816;6.054;2022-08-11T13:27:58;28.50;31.10
41628;DHT22;27321;50.816;6.054;2022-08-11T13:31:13;28.50;31.20
41628;DHT22;27321;50.816;6.054;2022-08-11T13:34:16;28.60;31.60
41628;DHT22;27321;50.816;6.054;2022-08-11T13:37:19;28.50;31.30
41628;DHT22;27321;50.816;6.054;2022-08-11T13:40:22;28.60;31.60
41628;DHT22;27321;50.816;6.054;2022-08-11T13:43:28;28.60;30.70
41628;DHT22;27321;50.816;6.054;2022-08-11T13:46:34;28.70;30.80
41628;DHT22;27321;50.816;6.054;2022-08-11T13:49:38;28.60;30.50
41628;DHT22;27321;50.816;6.054;2022-08-11T13:52:41;28.70;30.40
41628;DHT22;27321;50.816;6.054;2022-08-11T13:55:44;28.80;29.90
41628;DHT22;27321;50.816;6.054;2022-08-11T13:58:49;28.80;30.90
41628;DHT22;27321;50.816;6.054;2022-08-11T14:01:55;28.80;30.60
41628;DHT22;27321;50.816;6.054;2022-08-11T14:05:04;28.80;31.00
41628;DHT22;27321;50.816;6.054;2022-08-11T14:08:36;28.80;31.20
41628;DHT22;27321;50.816;6.054;2022-08-11T14:11:43;28.70;31.80
41628;DHT22;27321;50.816;6.054;2022-08-11T14:15:15;28.80;31.20
41628;DHT22;27321;50.816;6.054;2022-08-11T14:18:25;28.70;30.10
41628;DHT22;27321;50.816;6.054;2022-08-11T14:21:29;28.80;30.40
41628;DHT22;27321;50.816;6.054;2022-08-11T14:24:54;28.90;29.90
41628;DHT22;27321;50.816;6.054;2022-08-11T14:27:59;29.00;29.60
41628;DHT22;27321;50.816;6.054;2022-08-11T14:31:03;29.00;30.00
41628;DHT22;27321;50.816;6.054;2022-08-11T14:44:31;29.10;29.60
41628;DHT22;27321;50.816;6.054;2022-08-11T14:49:33;29.10;30.60
41628;DHT22;27321;50.816;6.054;2022-08-11T14:53:55;29.10;30.10
41628;DHT22;27321;50.816;6.054;2022-08-11T15:02:29;29.00;32.00
41628;DHT22;27321;50.816;6.054;2022-08-11T15:05:54;29.00;30.00
41628;DHT22;27321;50.816;6.054;2022-08-11T15:08:56;29.00;29.80
41628;DHT22;27321;50.816;6.054;2022-08-11T15:12:00;29.10;29.70
41628;DHT22;27321;50.816;6.054;2022-08-11T15:15:20;29.10;29.40
41628;DHT22;27321;50.816;6.054;2022-08-11T15:18:41;29.10;29.70
41628;DHT22;27321;50.816;6.054;2022-08-11T15:21:42;29.10;29.10
41628;DHT22;27321;50.816;6.054;2022-08-11T15:25:01;29.10;29.20
41628;DHT22;27321;50.816;6.054;2022-08-11T15:28:03;29.10;29.00
41628;DHT22;27321;50.816;6.054;2022-08-11T15:31:26;29.10;29.20
41628;DHT22;27321;50.816;6.054;2022-08-11T15:34:50;29.10;29.30
41628;DHT22;27321;50.816;6.054;2022-08-11T15:38:13;29.10;29.40
41628;DHT22;27321;50.816;6.054;2022-08-11T15:41:16;29.20;29.40
41628;DHT22;27321;50.816;6.054;2022-08-11T15:44:36;29.20;28.90
41628;DHT22;27321;50.816;6.054;2022-08-11T15:48:06;29.20;28.70
41628;DHT22;27321;50.816;6.054;2022-08-11T15:51:15;29.30;28.50
41628;DHT22;27321;50.816;6.054;2022-08-11T15:54:25;29.40;28.60
41628;DHT22;27321;50.816;6.054;2022-08-11T15:57:30;29.40;29.00
41628;DHT22;27321;50.816;6.054;2022-08-11T16:00:56;29.50;29.20
41628;DHT22;27321;50.816;6.054;2022-08-11T16:04:19;29.50;28.60
41628;DHT22;27321;50.816;6.054;2022-08-11T16:07:27;29.50;28.70
41628;DHT22;27321;50.816;6.054;2022-08-11T16:10:42;29.50;28.20
41628;DHT22;27321;50.816;6.054;2022-08-11T16:14:15;29.50;28.90
41628;DHT22;27321;50.816;6.054;2022-08-11T16:18:02;29.60;28.30
41628;DHT22;27321;50.816;6.054;2022-08-11T16:21:17;29.60;28.00
41628;DHT22;27321;50.816;6.054;2022-08-11T16:24:21;29.70;28.20
41628;DHT22;27321;50.816;6.054;2022-08-11T16:27:31;29.70;28.40
41628;DHT22;27321;50.816;6.054;2022-08-11T16:30:39;29.60;28.30
41628;DHT22;27321;50.816;6.054;2022-08-11T16:33:50;29.60;28.80
41628;DHT22;27321;50.816;6.054;2022-08-11T16:37:00;29.60;29.40
41628;DHT22;27321;50.816;6.054;2022-08-11T16:40:26;29.60;28.70
41628;DHT22;27321;50.816;6.054;2022-08-11T16:43:31;29.60;28.30
41628;DHT22;27321;50.816;6.054;2022-08-11T16:46:59;29.50;28.10
41628;DHT22;27321;50.816;6.054;2022-08-11T16:50:26;29.50;28.50
41628;DHT22;27321;50.816;6.054;2022-08-11T16:53:54;29.50;28.20
41628;DHT22;27321;50.816;6.054;2022-08-11T16:56:58;29.50;28.90
41628;DHT22;27321;50.816;6.054;2022-08-11T17:00:30;29.40;28.40
41628;DHT22;27321;50.816;6.054;2022-08-11T17:03:39;29.40;28.40
41628;DHT22;27321;50.816;6.054;2022-08-11T17:07:10;29.40;28.60
41628;DHT22;27321;50.816;6.054;2022-08-11T17:10:43;29.30;28.60
41628;DHT22;27321;50.816;6.054;2022-08-11T17:23:59;29.30;29.40
41628;DHT22;27321;50.816;6.054;2022-08-11T17:27:04;29.20;29.10
41628;DHT22;27321;50.816;6.054;2022-08-11T17:30:07;29.10;29.10
41628;DHT22;27321;50.816;6.054;2022-08-11T17:33:11;29.20;29.30
41628;DHT22;27321;50.816;6.054;2022-08-11T17:36:30;29.10;29.30
41628;DHT22;27321;50.816;6.054;2022-08-11T17:39:33;29.10;29.40
41628;DHT22;27321;50.816;6.054;2022-08-11T17:42:35;29.10;29.40
41628;DHT22;27321;50.816;6.054;2022-08-11T17:45:56;29.10;29.40
41628;DHT22;27321;50.816;6.054;2022-08-11T17:49:09;29.00;29.50
41628;DHT22;27321;50.816;6.054;2022-08-11T17:52:11;29.00;29.60
41628;DHT22;27321;50.816;6.054;2022-08-11T17:55:34;29.00;29.80
41628;DHT22;27321;50.816;6.054;2022-08-11T17:58:55;29.00;30.10
41628;DHT22;27321;50.816;6.054;2022-08-11T18:02:20;28.90;30.10
41628;DHT22;27321;50.816;6.054;2022-08-11T18:05:41;28.80;30.20
41628;DHT22;27321;50.816;6.054;2022-08-11T18:08:45;28.80;30.40
41628;DHT22;27321;50.816;6.054;2022-08-11T18:12:08;28.70;30.40
41628;DHT22;27321;50.816;6.054;2022-08-11T18:15:29;28.60;30.10
41628;DHT22;27321;50.816;6.054;2022-08-11T18:18:49;28.60;30.40
41628;DHT22;27321;50.816;6.054;2022-08-11T18:22:12;28.60;30.80
41628;DHT22;27321;50.816;6.054;2022-08-11T18:25:41;28.50;30.70
41628;DHT22;27321;50.816;6.054;2022-08-11T18:29:05;28.50;30.80
41628;DHT22;27321;50.816;6.054;2022-08-11T18:32:27;28.50;31.10
41628;DHT22;27321;50.816;6.054;2022-08-11T18:35:52;28.40;31.40
41628;DHT22;27321;50.816;6.054;2022-08-11T18:39:13;28.30;31.80
41628;DHT22;27321;50.816;6.054;2022-08-11T18:42:34;28.20;32.20
41628;DHT22;27321;50.816;6.054;2022-08-11T18:46:05;28.10;32.40
41628;DHT22;27321;50.816;6.054;2022-08-11T18:49:30;28.10;32.70
41628;DHT22;27321;50.816;6.054;2022-08-11T18:52:53;28.00;32.90
41628;DHT22;27321;50.816;6.054;2022-08-11T18:56:15;27.90;33.10
41628;DHT22;27321;50.816;6.054;2022-08-11T18:59:37;27.90;33.30
41628;DHT22;27321;50.816;6.054;2022-08-11T19:03:00;27.80;33.60
41628;DHT22;27321;50.816;6.054;2022-08-11T19:06:23;27.60;33.60
41628;DHT22;27321;50.816;6.054;2022-08-11T19:10:09;27.50;33.80
41628;DHT22;27321;50.816;6.054;2022-08-11T19:13:31;27.50;34.00
41628;DHT22;27321;50.816;6.054;2022-08-11T19:16:52;27.40;34.00
41628;DHT22;27321;50.816;6.054;2022-08-11T19:20:16;27.30;34.20
41628;DHT22;27321;50.816;6.054;2022-08-11T19:23:42;27.30;34.30
41628;DHT22;27321;50.816;6.054;2022-08-11T19:27:03;27.30;34.40
41628;DHT22;27321;50.816;6.054;2022-08-11T19:30:25;27.20;34.60
41628;DHT22;27321;50.816;6.054;2022-08-11T19:33:47;27.10;34.60
41628;DHT22;27321;50.816;6.054;2022-08-11T19:37:08;27.10;34.80
41628;DHT22;27321;50.816;6.054;2022-08-11T19:40:29;27.00;35.60
41628;DHT22;27321;50.816;6.054;2022-08-11T19:43:50;26.90;35.70
41628;DHT22;27321;50.816;6.054;2022-08-11T19:47:11;26.90;37.20
41628;DHT22;27321;50.816;6.054;2022-08-11T19:50:32;26.80;37.70
41628;DHT22;27321;50.816;6.054;2022-08-11T19:53:52;26.70;39.20
41628;DHT22;27321;50.816;6.054;2022-08-11T19:57:13;26.60;40.10
41628;DHT22;27321;50.816;6.054;2022-08-11T20:00:34;26.60;40.50
41628;DHT22;27321;50.816;6.054;2022-08-11T20:03:53;26.50;41.00
41628;DHT22;27321;50.816;6.054;2022-08-11T20:07:14;26.40;41.50
41628;DHT22;27321;50.816;6.054;2022-08-11T20:10:35;26.40;42.10
41628;DHT22;27321;50.816;6.054;2022-08-11T20:13:55;26.30;42.40
41628;DHT22;27321;50.816;6.054;2022-08-11T20:17:16;26.20;43.10
41628;DHT22;27321;50.816;6.054;2022-08-11T20:20:37;26.10;43.10
41628;DHT22;27321;50.816;6.054;2022-08-11T20:24:00;26.10;43.20
41628;DHT22;27321;50.816;6.054;2022-08-11T20:27:21;26.00;43.30
41628;DHT22;27321;50.816;6.054;2022-08-11T20:30:42;26.00;43.70
41628;DHT22;27321;50.816;6.054;2022-08-11T20:34:07;25.90;44.10
41628;DHT22;27321;50.816;6.054;2022-08-11T20:37:28;25.80;44.00
41628;DHT22;27321;50.816;6.054;2022-08-11T20:40:48;25.70;43.90
41628;DHT22;27321;50.816;6.054;2022-08-11T20:44:08;25.60;43.90
41628;DHT22;27321;50.816;6.054;2022-08-11T20:47:28;25.60;44.10
41628;DHT22;27321;50.816;6.054;2022-08-11T20:50:49;25.60;44.30
41628;DHT22;27321;50.816;6.054;2022-08-11T20:54:10;25.50;44.40
41628;DHT22;27321;50.816;6.054;2022-08-11T20:57:30;25.50;44.80
41628;DHT22;27321;50.816;6.054;2022-08-11T21:00:50;25.40;44.80
41628;DHT22;27321;50.816;6.054;2022-08-11T21:04:12;25.30;44.70
41628;DHT22;27321;50.816;6.054;2022-08-11T21:07:36;25.30;44.80
41628;DHT22;27321;50.816;6.054;2022-08-11T21:10:59;25.20;44.80
41628;DHT22;27321;50.816;6.054;2022-08-11T21:14:20;25.10;45.00
41628;DHT22;27321;50.816;6.054;2022-08-11T21:17:41;25.10;45.20
41628;DHT22;27321;50.816;6.054;2022-08-11T21:21:05;25.10;45.30
41628;DHT22;27321;50.816;6.054;2022-08-11T21:24:28;25.00;45.60
41628;DHT22;27321;50.816;6.054;2022-08-11T21:27:50;25.00;45.70
41628;DHT22;27321;50.816;6.054;2022-08-11T21:31:10;25.00;45.70
41628;DHT22;27321;50.816;6.054;2022-08-11T21:34:30;24.90;45.70
41628;DHT22;27321;50.816;6.054;2022-08-11T21:37:50;24.90;45.40
41628;DHT22;27321;50.816;6.054;2022-08-11T21:41:11;24.80;45.60
41628;DHT22;27321;50.816;6.054;2022-08-11T21:44:31;24.70;45.70
41628;DHT22;27321;50.816;6.054;2022-08-11T21:47:53;24.70;45.90
41628;DHT22;27321;50.816;6.054;2022-08-11T21:51:13;24.60;46.30
41628;DHT22;27321;50.816;6.054;2022-08-11T21:54:34;24.60;46.20
41628;DHT22;27321;50.816;6.054;2022-08-11T21:57:55;24.50;46.30
41628;DHT22;27321;50.816;6.054;2022-08-11T22:01:15;24.50;46.60
41628;DHT22;27321;50.816;6.054;2022-08-11T22:04:36;24.40;47.10
41628;DHT22;27321;50.816;6.054;2022-08-11T22:07:57;24.30;47.20
41628;DHT22;27321;50.816;6.054;2022-08-11T22:11:17;24.30;47.30
41628;DHT22;27321;50.816;6.054;2022-08-11T22:14:37;24.30;47.60
41628;DHT22;27321;50.816;6.054;2022-08-11T22:17:57;24.20;47.50
41628;DHT22;27321;50.816;6.054;2022-08-11T22:21:19;24.20;47.40
41628;DHT22;27321;50.816;6.054;2022-08-11T22:24:40;24.10;47.40
41628;DHT22;27321;50.816;6.054;2022-08-11T22:27:59;24.10;47.30
41628;DHT22;27321;50.816;6.054;2022-08-11T22:31:19;24.10;47.10
41628;DHT22;27321;50.816;6.054;2022-08-11T22:34:40;24.00;47.40
41628;DHT22;27321;50.816;6.054;2022-08-11T22:38:01;24.00;47.20
41628;DHT22;27321;50.816;6.054;2022-08-11T22:41:21;23.90;47.40
41628;DHT22;27321;50.816;6.054;2022-08-11T22:44:41;23.90;47.50
41628;DHT22;27321;50.816;6.054;2022-08-11T22:48:03;23.90;47.60
41628;DHT22;27321;50.816;6.054;2022-08-11T22:51:24;23.80;47.50
41628;DHT22;27321;50.816;6.054;2022-08-11T22:54:45;23.70;47.20
41628;DHT22;27321;50.816;6.054;2022-08-11T22:58:05;23.70;47.80
41628;DHT22;27321;50.816;6.054;2022-08-11T23:01:25;23.70;48.10
41628;DHT22;27321;50.816;6.054;2022-08-11T23:04:47;23.60;48.10
41628;DHT22;27321;50.816;6.054;2022-08-11T23:08:08;23.60;48.40
41628;DHT22;27321;50.816;6.054;2022-08-11T23:11:28;23.60;48.30
41628;DHT22;27321;50.816;6.054;2022-08-11T23:14:48;23.50;48.50
41628;DHT22;27321;50.816;6.054;2022-08-11T23:18:09;23.50;48.70
41628;DHT22;27321;50.816;6.054;2022-08-11T23:21:30;23.30;49.00